sensor_id;sensor_type;location;lat;lon;timestamp;temperature;humidity
33095;DHT22;19459;53.044;8.910;2023-02-03T00:01:34;8.40;99.90
33095;DHT22;19459;53.044;8.910;2023-02-03T00:03:59;8.40;99.90
33095;DHT22;19459;53.044;8.910;2023-02-03T00:06:25;8.40;99.90
33095;DHT22;19459;53.044;8.910;2023-02-03T00:08:53;8.40;99.90
33095;DHT22;19459;53.044;8.910;2023-02-03T00:11:20;8.40;99.90
33095;DHT22;19459;53.044;8.910;2023-02-03T00:13:46;8.40;99.90
33095;DHT22;19459;53.044;8.910;2023-02-03T00:16:12;8.40;99.90
33095;DHT22;19459;53.044;8.910;2023-02-03T00:18:37;8.40;99.90
33095;DHT22;19459;53.044;8.910;2023-02-03T00:21:04;8.40;99.90
33095;DHT22;19459;53.044;8.910;2023-02-03T00:23:30;8.40;99.90
33095;DHT22;19459;53.044;8.910;2023-02-03T00:26:05;8.50;99.90
33095;DHT22;19459;53.044;8.910;2023-02-03T00:28:32;8.50;99.90
33095;DHT22;19459;53.044;8.910;2023-02-03T00:30:58;8.60;99.90
33095;DHT22;19459;53.044;8.910;2023-02-03T00:33:24;8.60;99.90
33095;DHT22;19459;53.044;8.910;2023-02-03T00:35:50;8.50;99.90
33095;DHT22;19459;53.044;8.910;2023-02-03T00:38:15;8.50;99.90
33095;DHT22;19459;53.044;8.910;2023-02-03T00:40:41;8.50;99.90
33095;DHT22;19459;53.044;8.910;2023-02-03T00:43:08;8.40;99.90
33095;DHT22;19459;53.044;8.910;2023-02-03T00:45:34;8.40;99.90
33095;DHT22;19459;53.044;8.910;2023-02-03T00:47:59;8.40;99.90
33095;DHT22;19459;53.044;8.910;2023-02-03T00:50:25;8.50;99.90
33095;DHT22;19459;53.044;8.910;2023-02-03T00:52:51;8.40;99.90
33095;DHT22;19459;53.044;8.910;2023-02-03T00:55:17;8.40;99.90
33095;DHT22;19459;53.044;8.910;2023-02-03T00:57:43;8.40;99.90
33095;DHT22;19459;53.044;8.910;2023-02-03T01:00:09;8.40;99.90
33095;DHT22;19459;53.044;8.910;2023-02-03T01:02:35;8.40;99.90
33095;DHT22;19459;53.044;8.910;2023-02-03T01:05:01;8.40;99.90
33095;DHT22;19459;53.044;8.910;2023-02-03T01:07:29;8.40;99.90
33095;DHT22;19459;53.044;8.910;2023-02-03T01:09:56;8.40;99.90
33095;DHT22;19459;53.044;8.910;2023-02-03T01:12:21;8.40;99.90
33095;DHT22;19459;53.044;8.910;2023-02-03T01:14:47;8.50;99.90
33095;DHT22;19459;53.044;8.910;2023-02-03T01:17:13;8.50;99.90
33095;DHT22;19459;53.044;8.910;2023-02-03T01:19:39;8.50;99.90
33095;DHT22;19459;53.044;8.910;2023-02-03T01:22:04;8.50;99.90
33095;DHT22;19459;53.044;8.910;2023-02-03T01:24:30;8.50;99.90
33095;DHT22;19459;53.044;8.910;2023-02-03T01:26:56;8.50;99.90
33095;DHT22;19459;53.044;8.910;2023-02-03T01:29:21;8.50;99.90
33095;DHT22;19459;53.044;8.910;2023-02-03T01:31:47;8.50;99.90
33095;DHT22;19459;53.044;8.910;2023-02-03T01:34:13;8.50;99.90
33095;DHT22;19459;53.044;8.910;2023-02-03T01:36:41;8.60;99.90
33095;DHT22;19459;53.044;8.910;2023-02-03T01:39:07;8.60;99.90
33095;DHT22;19459;53.044;8.910;2023-02-03T01:41:36;8.60;99.90
33095;DHT22;19459;53.044;8.910;2023-02-03T01:44:42;8.60;99.90
33095;DHT22;19459;53.044;8.910;2023-02-03T01:47:16;8.60;99.90
33095;DHT22;19459;53.044;8.910;2023-02-03T01:52:34;8.70;99.90
33095;DHT22;19459;53.044;8.910;2023-02-03T01:55:03;8.70;99.90
33095;DHT22;19459;53.044;8.910;2023-02-03T01:57:33;8.70;99.90
33095;DHT22;19459;53.044;8.910;2023-02-03T02:00:05;8.70;99.90
33095;DHT22;19459;53.044;8.910;2023-02-03T02:02:34;8.70;99.90
33095;DHT22;19459;53.044;8.910;2023-02-03T02:05:11;8.70;99.90
33095;DHT22;19459;53.044;8.910;2023-02-03T02:07:42;8.70;99.90
33095;DHT22;19459;53.044;8.910;2023-02-03T02:10:09;8.70;99.90
33095;DHT22;19459;53.044;8.910;2023-02-03T02:12:35;8.70;99.90
33095;DHT22;19459;53.044;8.910;2023-02-03T02:15:02;8.70;99.90
33095;DHT22;19459;53.044;8.910;2023-02-03T02:18:00;8.70;99.90
33095;DHT22;19459;53.044;8.910;2023-02-03T02:23:23;8.70;99.90
33095;DHT22;19459;53.044;8.910;2023-02-03T02:35:03;8.70;99.90
33095;DHT22;19459;53.044;8.910;2023-02-03T02:38:09;8.80;99.90
33095;DHT22;19459;53.044;8.910;2023-02-03T02:40:52;8.70;99.90
33095;DHT22;19459;53.044;8.910;2023-02-03T02:46:03;8.80;99.90
33095;DHT22;19459;53.044;8.910;2023-02-03T02:51:40;8.80;99.90
33095;DHT22;19459;53.044;8.910;2023-02-03T02:54:12;8.80;99.90
33095;DHT22;19459;53.044;8.910;2023-02-03T02:56:43;8.80;99.90
33095;DHT22;19459;53.044;8.910;2023-02-03T02:59:11;8.80;99.90
33095;DHT22;19459;53.044;8.910;2023-02-03T03:01:38;8.80;99.90
33095;DHT22;19459;53.044;8.910;2023-02-03T03:04:07;8.80;99.90
33095;DHT22;19459;53.044;8.910;2023-02-03T03:06:40;8.80;99.90
33095;DHT22;19459;53.044;8.910;2023-02-03T03:09:15;8.90;99.90
33095;DHT22;19459;53.044;8.910;2023-02-03T03:11:52;8.90;99.90
33095;DHT22;19459;53.044;8.910;2023-02-03T03:14:24;8.90;99.90
33095;DHT22;19459;53.044;8.910;2023-02-03T03:19:48;8.90;99.90
33095;DHT22;19459;53.044;8.910;2023-02-03T03:22:16;8.90;99.90
33095;DHT22;19459;53.044;8.910;2023-02-03T03:24:47;8.90;99.90
33095;DHT22;19459;53.044;8.910;2023-02-03T03:27:20;8.90;99.90
33095;DHT22;19459;53.044;8.910;2023-02-03T03:30:09;8.90;99.90
33095;DHT22;19459;53.044;8.910;2023-02-03T03:32:37;8.90;99.90
33095;DHT22;19459;53.044;8.910;2023-02-03T03:35:04;8.90;99.90
33095;DHT22;19459;53.044;8.910;2023-02-03T03:37:54;9.00;99.90
33095;DHT22;19459;53.044;8.910;2023-02-03T03:40:42;9.00;99.90
33095;DHT22;19459;53.044;8.910;2023-02-03T03:43:19;9.00;99.90
33095;DHT22;19459;53.044;8.910;2023-02-03T03:45:56;8.90;99.90
33095;DHT22;19459;53.044;8.910;2023-02-03T03:48:35;8.90;99.90
33095;DHT22;19459;53.044;8.910;2023-02-03T03:51:08;9.00;99.90
33095;DHT22;19459;53.044;8.910;2023-02-03T03:53:39;8.90;99.90
33095;DHT22;19459;53.044;8.910;2023-02-03T03:56:11;9.00;99.90
33095;DHT22;19459;53.044;8.910;2023-02-03T03:58:43;9.00;99.90
33095;DHT22;19459;53.044;8.910;2023-02-03T04:01:12;9.00;99.90
33095;DHT22;19459;53.044;8.910;2023-02-03T04:03:46;9.00;99.90
33095;DHT22;19459;53.044;8.910;2023-02-03T04:06:14;9.00;99.90
33095;DHT22;19459;53.044;8.910;2023-02-03T04:08:40;9.00;99.90
33095;DHT22;19459;53.044;8.910;2023-02-03T04:11:06;9.00;99.90
33095;DHT22;19459;53.044;8.910;2023-02-03T04:13:32;9.00;99.90
33095;DHT22;19459;53.044;8.910;2023-02-03T04:15:58;9.00;99.90
33095;DHT22;19459;53.044;8.910;2023-02-03T04:18:23;9.00;99.90
33095;DHT22;19459;53.044;8.910;2023-02-03T04:20:49;9.00;99.90
33095;DHT22;19459;53.044;8.910;2023-02-03T04:23:16;8.90;99.90
33095;DHT22;19459;53.044;8.910;2023-02-03T04:25:41;8.90;99.90
33095;DHT22;19459;53.044;8.910;2023-02-03T04:28:07;8.90;99.90
33095;DHT22;19459;53.044;8.910;2023-02-03T04:30:33;8.80;99.90
33095;DHT22;19459;53.044;8.910;2023-02-03T04:32:59;8.80;99.90
33095;DHT22;19459;53.044;8.910;2023-02-03T04:35:25;8.90;99.90
33095;DHT22;19459;53.044;8.910;2023-02-03T04:37:51;8.80;99.90
33095;DHT22;19459;53.044;8.910;2023-02-03T04:40:17;8.80;99.90
33095;DHT22;19459;53.044;8.910;2023-02-03T04:42:43;8.80;99.90
33095;DHT22;19459;53.044;8.910;2023-02-03T04:45:10;8.70;99.90
33095;DHT22;19459;53.044;8.910;2023-02-03T04:47:37;8.70;99.90
33095;DHT22;19459;53.044;8.910;2023-02-03T04:50:04;8.60;99.90
33095;DHT22;19459;53.044;8.910;2023-02-03T04:52:30;8.60;99.90
33095;DHT22;19459;53.044;8.910;2023-02-03T04:54:56;8.60;99.90
33095;DHT22;19459;53.044;8.910;2023-02-03T04:57:22;8.60;99.90
33095;DHT22;19459;53.044;8.910;2023-02-03T04:59:47;8.60;99.90
33095;DHT22;19459;53.044;8.910;2023-02-03T05:02:13;8.60;99.90
33095;DHT22;19459;53.044;8.910;2023-02-03T05:04:39;8.60;99.90
33095;DHT22;19459;53.044;8.910;2023-02-03T05:07:05;8.60;99.90
33095;DHT22;19459;53.044;8.910;2023-02-03T05:09:30;8.50;99.90
33095;DHT22;19459;53.044;8.910;2023-02-03T05:11:56;8.60;99.90
33095;DHT22;19459;53.044;8.910;2023-02-03T05:14:22;8.60;99.90
33095;DHT22;19459;53.044;8.910;2023-02-03T05:16:48;8.60;99.90
33095;DHT22;19459;53.044;8.910;2023-02-03T05:19:13;8.70;99.90
33095;DHT22;19459;53.044;8.910;2023-02-03T05:21:39;8.70;99.90
33095;DHT22;19459;53.044;8.910;2023-02-03T05:24:05;8.80;99.90
33095;DHT22;19459;53.044;8.910;2023-02-03T05:26:32;8.80;99.90
33095;DHT22;19459;53.044;8.910;2023-02-03T05:28:59;8.80;99.90
33095;DHT22;19459;53.044;8.910;2023-02-03T05:31:25;8.90;99.90
33095;DHT22;19459;53.044;8.910;2023-02-03T05:33:51;8.90;99.90
33095;DHT22;19459;53.044;8.910;2023-02-03T05:36:17;8.90;99.90
33095;DHT22;19459;53.044;8.910;2023-02-03T05:38:42;8.90;99.90
33095;DHT22;19459;53.044;8.910;2023-02-03T05:41:09;8.80;99.90
33095;DHT22;19459;53.044;8.910;2023-02-03T05:43:55;8.90;99.90
33095;DHT22;19459;53.044;8.910;2023-02-03T05:46:21;8.80;99.90
33095;DHT22;19459;53.044;8.910;2023-02-03T05:48:47;8.80;99.90
33095;DHT22;19459;53.044;8.910;2023-02-03T05:51:13;8.70;99.90
33095;DHT22;19459;53.044;8.910;2023-02-03T05:53:38;8.70;99.90
33095;DHT22;19459;53.044;8.910;2023-02-03T05:56:04;8.60;99.90
33095;DHT22;19459;53.044;8.910;2023-02-03T05:58:30;8.60;99.90
33095;DHT22;19459;53.044;8.910;2023-02-03T06:00:56;8.60;99.90
33095;DHT22;19459;53.044;8.910;2023-02-03T06:03:22;8.60;99.90
33095;DHT22;19459;53.044;8.910;2023-02-03T06:05:48;8.60;99.90
33095;DHT22;19459;53.044;8.910;2023-02-03T06:08:14;8.60;99.90
33095;DHT22;19459;53.044;8.910;2023-02-03T06:10:39;8.60;99.90
33095;DHT22;19459;53.044;8.910;2023-02-03T06:13:14;8.60;99.90
33095;DHT22;19459;53.044;8.910;2023-02-03T06:15:41;8.60;99.90
33095;DHT22;19459;53.044;8.910;2023-02-03T06:18:07;8.60;99.90
33095;DHT22;19459;53.044;8.910;2023-02-03T06:20:33;8.50;99.90
33095;DHT22;19459;53.044;8.910;2023-02-03T06:22:59;8.50;99.90
33095;DHT22;19459;53.044;8.910;2023-02-03T06:25:25;8.40;99.90
33095;DHT22;19459;53.044;8.910;2023-02-03T06:27:51;8.40;99.90
33095;DHT22;19459;53.044;8.910;2023-02-03T06:30:17;8.40;99.90
33095;DHT22;19459;53.044;8.910;2023-02-03T06:32:44;8.40;99.90
33095;DHT22;19459;53.044;8.910;2023-02-03T06:35:10;8.30;99.90
33095;DHT22;19459;53.044;8.910;2023-02-03T06:37:36;8.30;99.90
33095;DHT22;19459;53.044;8.910;2023-02-03T06:40:03;8.30;99.90
33095;DHT22;19459;53.044;8.910;2023-02-03T06:42:29;8.30;99.90
33095;DHT22;19459;53.044;8.910;2023-02-03T06:44:55;8.30;99.90
33095;DHT22;19459;53.044;8.910;2023-02-03T06:47:21;8.30;99.90
33095;DHT22;19459;53.044;8.910;2023-02-03T06:49:46;8.30;99.90
33095;DHT22;19459;53.044;8.910;2023-02-03T06:52:12;8.30;99.90
33095;DHT22;19459;53.044;8.910;2023-02-03T06:54:40;8.40;99.90
33095;DHT22;19459;53.044;8.910;2023-02-03T06:57:06;8.40;99.90
33095;DHT22;19459;53.044;8.910;2023-02-03T06:59:31;8.50;99.90
33095;DHT22;19459;53.044;8.910;2023-02-03T07:01:57;8.60;99.90
33095;DHT22;19459;53.044;8.910;2023-02-03T07:04:23;8.60;99.90
33095;DHT22;19459;53.044;8.910;2023-02-03T07:06:49;8.70;99.90
33095;DHT22;19459;53.044;8.910;2023-02-03T07:09:15;8.70;99.90
33095;DHT22;19459;53.044;8.910;2023-02-03T07:11:40;8.80;99.90
33095;DHT22;19459;53.044;8.910;2023-02-03T07:14:06;8.80;99.90
33095;DHT22;19459;53.044;8.910;2023-02-03T07:16:32;8.90;99.90
33095;DHT22;19459;53.044;8.910;2023-02-03T07:18:58;9.00;99.90
33095;DHT22;19459;53.044;8.910;2023-02-03T07:21:24;9.00;99.90
33095;DHT22;19459;53.044;8.910;2023-02-03T07:23:50;9.00;99.90
33095;DHT22;19459;53.044;8.910;2023-02-03T07:26:16;9.10;99.90
33095;DHT22;19459;53.044;8.910;2023-02-03T07:28:43;9.10;99.90
33095;DHT22;19459;53.044;8.910;2023-02-03T07:31:09;9.10;99.90
33095;DHT22;19459;53.044;8.910;2023-02-03T07:33:36;9.20;99.90
33095;DHT22;19459;53.044;8.910;2023-02-03T07:36:02;9.20;99.90
33095;DHT22;19459;53.044;8.910;2023-02-03T07:38:29;9.10;99.90
33095;DHT22;19459;53.044;8.910;2023-02-03T07:40:55;9.20;99.90
33095;DHT22;19459;53.044;8.910;2023-02-03T07:43:21;9.30;99.90
33095;DHT22;19459;53.044;8.910;2023-02-03T07:45:48;9.30;99.90
33095;DHT22;19459;53.044;8.910;2023-02-03T07:48:15;9.40;99.90
33095;DHT22;19459;53.044;8.910;2023-02-03T07:50:43;9.40;99.90
33095;DHT22;19459;53.044;8.910;2023-02-03T07:53:11;9.30;99.90
33095;DHT22;19459;53.044;8.910;2023-02-03T07:55:37;9.40;99.90
33095;DHT22;19459;53.044;8.910;2023-02-03T07:58:03;9.40;99.90
33095;DHT22;19459;53.044;8.910;2023-02-03T08:00:29;9.50;99.90
33095;DHT22;19459;53.044;8.910;2023-02-03T08:02:55;9.50;99.90
33095;DHT22;19459;53.044;8.910;2023-02-03T08:05:21;9.40;99.90
33095;DHT22;19459;53.044;8.910;2023-02-03T08:07:46;9.40;99.90
33095;DHT22;19459;53.044;8.910;2023-02-03T08:10:13;9.40;99.90
33095;DHT22;19459;53.044;8.910;2023-02-03T08:12:40;9.50;99.90
33095;DHT22;19459;53.044;8.910;2023-02-03T08:15:11;9.50;99.90
33095;DHT22;19459;53.044;8.910;2023-02-03T08:17:37;9.60;99.90
33095;DHT22;19459;53.044;8.910;2023-02-03T08:20:10;9.50;99.90
33095;DHT22;19459;53.044;8.910;2023-02-03T08:22:36;9.60;99.90
33095;DHT22;19459;53.044;8.910;2023-02-03T08:25:02;9.60;99.90
33095;DHT22;19459;53.044;8.910;2023-02-03T08:27:28;9.60;99.90
33095;DHT22;19459;53.044;8.910;2023-02-03T08:29:56;9.70;99.90
33095;DHT22;19459;53.044;8.910;2023-02-03T08:32:21;9.70;99.90
33095;DHT22;19459;53.044;8.910;2023-02-03T08:34:48;9.80;99.90
33095;DHT22;19459;53.044;8.910;2023-02-03T08:37:17;9.80;99.90
33095;DHT22;19459;53.044;8.910;2023-02-03T08:39:44;9.80;99.90
33095;DHT22;19459;53.044;8.910;2023-02-03T08:42:10;9.70;99.90
33095;DHT22;19459;53.044;8.910;2023-02-03T08:44:36;9.80;99.90
33095;DHT22;19459;53.044;8.910;2023-02-03T08:47:04;9.80;99.90
33095;DHT22;19459;53.044;8.910;2023-02-03T08:49:30;9.80;99.90
33095;DHT22;19459;53.044;8.910;2023-02-03T08:51:57;9.80;99.90
33095;DHT22;19459;53.044;8.910;2023-02-03T08:54:24;9.80;99.90
33095;DHT22;19459;53.044;8.910;2023-02-03T08:56:50;9.80;99.90
33095;DHT22;19459;53.044;8.910;2023-02-03T08:59:17;9.80;99.90
33095;DHT22;19459;53.044;8.910;2023-02-03T09:01:43;9.80;99.90
33095;DHT22;19459;53.044;8.910;2023-02-03T09:04:11;9.80;99.90
33095;DHT22;19459;53.044;8.910;2023-02-03T09:06:37;9.80;99.90
33095;DHT22;19459;53.044;8.910;2023-02-03T09:09:03;9.80;99.90
33095;DHT22;19459;53.044;8.910;2023-02-03T09:11:29;9.80;99.90
33095;DHT22;19459;53.044;8.910;2023-02-03T09:13:55;9.70;99.90
33095;DHT22;19459;53.044;8.910;2023-02-03T09:16:23;9.80;99.90
33095;DHT22;19459;53.044;8.910;2023-02-03T09:18:51;9.50;99.90
33095;DHT22;19459;53.044;8.910;2023-02-03T09:21:19;9.10;99.90
33095;DHT22;19459;53.044;8.910;2023-02-03T09:23:45;8.90;99.90
33095;DHT22;19459;53.044;8.910;2023-02-03T09:26:13;8.80;99.90
33095;DHT22;19459;53.044;8.910;2023-02-03T09:28:39;8.70;99.90
33095;DHT22;19459;53.044;8.910;2023-02-03T09:31:11;8.70;99.90
33095;DHT22;19459;53.044;8.910;2023-02-03T09:33:38;8.70;99.90
33095;DHT22;19459;53.044;8.910;2023-02-03T09:36:05;8.70;99.90
33095;DHT22;19459;53.044;8.910;2023-02-03T09:38:32;8.60;99.90
33095;DHT22;19459;53.044;8.910;2023-02-03T09:43:48;8.70;99.90
33095;DHT22;19459;53.044;8.910;2023-02-03T09:46:27;8.70;99.90
33095;DHT22;19459;53.044;8.910;2023-02-03T09:52:59;8.70;99.90
33095;DHT22;19459;53.044;8.910;2023-02-03T09:55:16;8.80;99.90
33095;DHT22;19459;53.044;8.910;2023-02-03T10:00:56;9.00;99.90
33095;DHT22;19459;53.044;8.910;2023-02-03T10:17:26;9.60;99.90
33095;DHT22;19459;53.044;8.910;2023-02-03T10:22:39;9.80;99.90
33095;DHT22;19459;53.044;8.910;2023-02-03T10:25:23;9.90;99.90
33095;DHT22;19459;53.044;8.910;2023-02-03T10:27:55;10.00;99.90
33095;DHT22;19459;53.044;8.910;2023-02-03T10:30:30;10.10;99.90
33095;DHT22;19459;53.044;8.910;2023-02-03T10:33:09;10.10;99.90
33095;DHT22;19459;53.044;8.910;2023-02-03T10:35:49;10.20;99.90
33095;DHT22;19459;53.044;8.910;2023-02-03T10:38:39;10.10;99.90
33095;DHT22;19459;53.044;8.910;2023-02-03T10:41:06;10.20;99.90
33095;DHT22;19459;53.044;8.910;2023-02-03T10:43:32;10.20;99.90
33095;DHT22;19459;53.044;8.910;2023-02-03T10:46:34;10.30;99.90
33095;DHT22;19459;53.044;8.910;2023-02-03T10:49:01;10.40;99.90
33095;DHT22;19459;53.044;8.910;2023-02-03T10:51:49;10.50;99.90
33095;DHT22;19459;53.044;8.910;2023-02-03T10:54:35;10.70;99.90
33095;DHT22;19459;53.044;8.910;2023-02-03T10:57:10;10.80;99.90
33095;DHT22;19459;53.044;8.910;2023-02-03T10:59:41;10.80;99.90
33095;DHT22;19459;53.044;8.910;2023-02-03T11:02:24;10.70;99.90
33095;DHT22;19459;53.044;8.910;2023-02-03T11:05:10;10.60;99.90
33095;DHT22;19459;53.044;8.910;2023-02-03T11:07:42;10.50;99.90
33095;DHT22;19459;53.044;8.910;2023-02-03T11:10:29;10.50;99.90
33095;DHT22;19459;53.044;8.910;2023-02-03T11:18:52;10.50;99.90
33095;DHT22;19459;53.044;8.910;2023-02-03T11:26:34;10.50;99.90
33095;DHT22;19459;53.044;8.910;2023-02-03T11:29:03;10.30;99.90
33095;DHT22;19459;53.044;8.910;2023-02-03T11:31:33;10.30;99.90
33095;DHT22;19459;53.044;8.910;2023-02-03T11:34:03;10.50;99.90
33095;DHT22;19459;53.044;8.910;2023-02-03T11:36:33;10.70;99.90
33095;DHT22;19459;53.044;8.910;2023-02-03T11:39:19;10.70;99.90
33095;DHT22;19459;53.044;8.910;2023-02-03T11:41:46;10.50;99.90
33095;DHT22;19459;53.044;8.910;2023-02-03T11:46:44;10.40;99.90
33095;DHT22;19459;53.044;8.910;2023-02-03T11:52:38;10.30;99.90
33095;DHT22;19459;53.044;8.910;2023-02-03T12:07:54;10.10;99.90
33095;DHT22;19459;53.044;8.910;2023-02-03T12:13:37;10.30;99.90
33095;DHT22;19459;53.044;8.910;2023-02-03T12:19:46;10.40;99.90
33095;DHT22;19459;53.044;8.910;2023-02-03T12:22:56;10.30;99.90
33095;DHT22;19459;53.044;8.910;2023-02-03T12:31:51;10.20;99.90
33095;DHT22;19459;53.044;8.910;2023-02-03T12:34:35;10.30;99.90
33095;DHT22;19459;53.044;8.910;2023-02-03T12:39:51;10.30;99.90
33095;DHT22;19459;53.044;8.910;2023-02-03T12:42:26;10.30;99.90
33095;DHT22;19459;53.044;8.910;2023-02-03T12:45:17;10.20;99.90
33095;DHT22;19459;53.044;8.910;2023-02-03T12:48:16;10.10;99.90
33095;DHT22;19459;53.044;8.910;2023-02-03T12:50:52;10.10;99.90
33095;DHT22;19459;53.044;8.910;2023-02-03T12:53:36;10.00;99.90
33095;DHT22;19459;53.044;8.910;2023-02-03T12:56:12;10.00;99.90
33095;DHT22;19459;53.044;8.910;2023-02-03T12:58:47;10.10;99.90
33095;DHT22;19459;53.044;8.910;2023-02-03T13:01:25;10.00;99.90
33095;DHT22;19459;53.044;8.910;2023-02-03T13:04:32;10.00;99.90
33095;DHT22;19459;53.044;8.910;2023-02-03T13:07:11;9.90;99.90
33095;DHT22;19459;53.044;8.910;2023-02-03T13:10:18;9.90;99.90
33095;DHT22;19459;53.044;8.910;2023-02-03T13:12:57;9.90;99.90
33095;DHT22;19459;53.044;8.910;2023-02-03T13:15:36;9.80;99.90
33095;DHT22;19459;53.044;8.910;2023-02-03T13:18:36;9.80;99.90
33095;DHT22;19459;53.044;8.910;2023-02-03T13:21:04;9.80;99.90
33095;DHT22;19459;53.044;8.910;2023-02-03T13:23:30;9.80;99.90
33095;DHT22;19459;53.044;8.910;2023-02-03T13:32:07;9.70;99.90
33095;DHT22;19459;53.044;8.910;2023-02-03T13:37:54;9.70;99.90
33095;DHT22;19459;53.044;8.910;2023-02-03T13:43:15;9.60;99.90
33095;DHT22;19459;53.044;8.910;2023-02-03T13:45:46;9.60;99.90
33095;DHT22;19459;53.044;8.910;2023-02-03T13:48:24;9.60;99.90
33095;DHT22;19459;53.044;8.910;2023-02-03T13:51:25;9.60;99.90
33095;DHT22;19459;53.044;8.910;2023-02-03T13:54:03;9.50;99.90
33095;DHT22;19459;53.044;8.910;2023-02-03T13:56:30;9.50;99.90
33095;DHT22;19459;53.044;8.910;2023-02-03T13:59:27;9.50;99.90
33095;DHT22;19459;53.044;8.910;2023-02-03T14:05:13;9.40;99.90
33095;DHT22;19459;53.044;8.910;2023-02-03T14:16:39;9.30;99.90
33095;DHT22;19459;53.044;8.910;2023-02-03T14:24:42;9.20;99.90
33095;DHT22;19459;53.044;8.910;2023-02-03T14:27:29;9.30;99.90
33095;DHT22;19459;53.044;8.910;2023-02-03T14:32:53;9.20;99.90
33095;DHT22;19459;53.044;8.910;2023-02-03T14:35:38;9.20;99.90
33095;DHT22;19459;53.044;8.910;2023-02-03T14:38:13;9.20;99.90
33095;DHT22;19459;53.044;8.910;2023-02-03T14:41:01;9.10;99.90
33095;DHT22;19459;53.044;8.910;2023-02-03T14:46:58;9.10;99.90
33095;DHT22;19459;53.044;8.910;2023-02-03T14:58:44;8.90;99.90
33095;DHT22;19459;53.044;8.910;2023-02-03T15:01:24;9.00;99.90
33095;DHT22;19459;53.044;8.910;2023-02-03T15:04:25;8.90;99.90
33095;DHT22;19459;53.044;8.910;2023-02-03T15:06:52;8.90;99.90
33095;DHT22;19459;53.044;8.910;2023-02-03T15:09:35;8.90;99.90
33095;DHT22;19459;53.044;8.910;2023-02-03T15:12:18;8.90;99.90
33095;DHT22;19459;53.044;8.910;2023-02-03T15:14:44;8.90;99.90
33095;DHT22;19459;53.044;8.910;2023-02-03T15:17:26;8.80;99.90
33095;DHT22;19459;53.044;8.910;2023-02-03T15:19:53;8.80;99.90
33095;DHT22;19459;53.044;8.910;2023-02-03T15:22:29;8.80;99.90
33095;DHT22;19459;53.044;8.910;2023-02-03T15:24:58;8.80;99.90
33095;DHT22;19459;53.044;8.910;2023-02-03T15:27:27;8.80;99.90
33095;DHT22;19459;53.044;8.910;2023-02-03T15:29:55;8.80;99.90
33095;DHT22;19459;53.044;8.910;2023-02-03T15:32:37;8.80;99.90
33095;DHT22;19459;53.044;8.910;2023-02-03T15:35:10;8.80;99.90
33095;DHT22;19459;53.044;8.910;2023-02-03T15:38:02;8.80;99.90
33095;DHT22;19459;53.044;8.910;2023-02-03T15:40:36;8.70;99.90
33095;DHT22;19459;53.044;8.910;2023-02-03T15:46:25;8.70;99.90
33095;DHT22;19459;53.044;8.910;2023-02-03T15:49:06;8.70;99.90
33095;DHT22;19459;53.044;8.910;2023-02-03T15:51:44;8.70;99.90
33095;DHT22;19459;53.044;8.910;2023-02-03T15:54:16;8.70;99.90
33095;DHT22;19459;53.044;8.910;2023-02-03T15:59:29;8.60;99.90
33095;DHT22;19459;53.044;8.910;2023-02-03T16:04:55;8.60;99.90
33095;DHT22;19459;53.044;8.910;2023-02-03T16:07:25;8.60;99.90
33095;DHT22;19459;53.044;8.910;2023-02-03T16:09:54;8.60;99.90
33095;DHT22;19459;53.044;8.910;2023-02-03T16:12:26;8.50;99.90
33095;DHT22;19459;53.044;8.910;2023-02-03T16:14:56;8.50;99.90
33095;DHT22;19459;53.044;8.910;2023-02-03T16:17:33;8.50;99.90
33095;DHT22;19459;53.044;8.910;2023-02-03T16:20:21;8.50;99.90
33095;DHT22;19459;53.044;8.910;2023-02-03T16:23:04;8.50;99.90
33095;DHT22;19459;53.044;8.910;2023-02-03T16:26:06;8.50;99.90
33095;DHT22;19459;53.044;8.910;2023-02-03T16:28:40;8.40;99.90
33095;DHT22;19459;53.044;8.910;2023-02-03T16:31:26;8.40;99.90
33095;DHT22;19459;53.044;8.910;2023-02-03T16:34:16;8.40;99.90
33095;DHT22;19459;53.044;8.910;2023-02-03T16:37:19;8.40;99.90
33095;DHT22;19459;53.044;8.910;2023-02-03T16:40:08;8.40;99.90
33095;DHT22;19459;53.044;8.910;2023-02-03T16:42:53;8.40;99.90
33095;DHT22;19459;53.044;8.910;2023-02-03T16:45:37;8.40;99.90
33095;DHT22;19459;53.044;8.910;2023-02-03T16:48:21;8.30;99.90
33095;DHT22;19459;53.044;8.910;2023-02-03T16:51:14;8.30;99.90
33095;DHT22;19459;53.044;8.910;2023-02-03T16:53:43;8.40;99.90
33095;DHT22;19459;53.044;8.910;2023-02-03T16:56:10;8.40;99.90
33095;DHT22;19459;53.044;8.910;2023-02-03T16:58:37;8.40;99.90
33095;DHT22;19459;53.044;8.910;2023-02-03T17:01:05;8.40;99.90
33095;DHT22;19459;53.044;8.910;2023-02-03T17:03:34;8.40;99.90
33095;DHT22;19459;53.044;8.910;2023-02-03T17:06:03;8.40;99.90
33095;DHT22;19459;53.044;8.910;2023-02-03T17:08:33;8.30;99.90
33095;DHT22;19459;53.044;8.910;2023-02-03T17:11:05;8.30;99.90
33095;DHT22;19459;53.044;8.910;2023-02-03T17:13:33;8.40;99.90
33095;DHT22;19459;53.044;8.910;2023-02-03T17:15:59;8.40;99.90
33095;DHT22;19459;53.044;8.910;2023-02-03T17:18:25;8.30;99.90
33095;DHT22;19459;53.044;8.910;2023-02-03T17:20:51;8.30;99.90
33095;DHT22;19459;53.044;8.910;2023-02-03T17:23:17;8.30;99.90
33095;DHT22;19459;53.044;8.910;2023-02-03T17:25:45;8.30;99.90
33095;DHT22;19459;53.044;8.910;2023-02-03T17:28:12;8.30;99.90
33095;DHT22;19459;53.044;8.910;2023-02-03T17:30:39;8.30;99.90
33095;DHT22;19459;53.044;8.910;2023-02-03T17:33:06;8.30;99.90
33095;DHT22;19459;53.044;8.910;2023-02-03T17:35:45;8.30;99.90
33095;DHT22;19459;53.044;8.910;2023-02-03T17:38:12;8.20;99.90
33095;DHT22;19459;53.044;8.910;2023-02-03T17:40:42;8.20;99.90
33095;DHT22;19459;53.044;8.910;2023-02-03T17:43:08;8.20;99.90
33095;DHT22;19459;53.044;8.910;2023-02-03T17:45:38;8.20;99.90
33095;DHT22;19459;53.044;8.910;2023-02-03T17:48:05;8.10;99.90
33095;DHT22;19459;53.044;8.910;2023-02-03T17:50:30;8.10;99.90
33095;DHT22;19459;53.044;8.910;2023-02-03T17:52:56;8.10;99.90
33095;DHT22;19459;53.044;8.910;2023-02-03T17:55:22;8.00;99.90
33095;DHT22;19459;53.044;8.910;2023-02-03T17:57:48;8.00;99.90
33095;DHT22;19459;53.044;8.910;2023-02-03T18:00:14;8.00;99.90
33095;DHT22;19459;53.044;8.910;2023-02-03T18:02:40;7.90;99.90
33095;DHT22;19459;53.044;8.910;2023-02-03T18:05:07;7.90;99.90
33095;DHT22;19459;53.044;8.910;2023-02-03T18:07:33;7.80;99.90
33095;DHT22;19459;53.044;8.910;2023-02-03T18:09:59;7.80;99.90
33095;DHT22;19459;53.044;8.910;2023-02-03T18:12:24;7.70;99.90
33095;DHT22;19459;53.044;8.910;2023-02-03T18:14:50;7.70;99.90
33095;DHT22;19459;53.044;8.910;2023-02-03T18:17:16;7.60;99.90
33095;DHT22;19459;53.044;8.910;2023-02-03T18:19:42;7.50;99.90
33095;DHT22;19459;53.044;8.910;2023-02-03T18:22:08;7.50;99.90
33095;DHT22;19459;53.044;8.910;2023-02-03T18:24:34;7.50;99.90
33095;DHT22;19459;53.044;8.910;2023-02-03T18:26:59;7.50;99.90
33095;DHT22;19459;53.044;8.910;2023-02-03T18:29:27;7.50;99.90
33095;DHT22;19459;53.044;8.910;2023-02-03T18:31:56;7.60;99.90
33095;DHT22;19459;53.044;8.910;2023-02-03T18:34:21;7.60;99.90
33095;DHT22;19459;53.044;8.910;2023-02-03T18:36:48;7.60;99.90
33095;DHT22;19459;53.044;8.910;2023-02-03T18:39:14;7.70;99.90